sensor_id;sensor_type;location;lat;lon;timestamp;pressure;altitude;pressure_sealevel;temperature;humidity
80927;BME280;70385;44.538;18.532;2024-01-15T00:00:40;98582.44;;;-5.33;100.00
80927;BME280;70385;44.538;18.532;2024-01-15T00:03:07;98584.88;;;-5.46;100.00
80927;BME280;70385;44.538;18.532;2024-01-15T00:05:33;98583.25;;;-5.38;100.00
80927;BME280;70385;44.538;18.532;2024-01-15T00:07:59;98590.84;;;-5.40;100.00
80927;BME280;70385;44.538;18.532;2024-01-15T00:10:28;98579.03;;;-5.35;100.00
80927;BME280;70385;44.538;18.532;2024-01-15T00:12:54;98575.63;;;-5.34;100.00
80927;BME280;70385;44.538;18.532;2024-01-15T00:15:20;98561.16;;;-5.36;100.00
80927;BME280;70385;44.538;18.532;2024-01-15T00:17:48;98564.50;;;-5.42;100.00
80927;BME280;70385;44.538;18.532;2024-01-15T00:20:15;98567.13;;;-5.36;100.00
80927;BME280;70385;44.538;18.532;2024-01-15T00:22:44;98568.06;;;-5.20;100.00
80927;BME280;70385;44.538;18.532;2024-01-15T00:25:10;98563.72;;;-5.32;100.00
80927;BME280;70385;44.538;18.532;2024-01-15T00:27:36;98551.06;;;-5.18;100.00
80927;BME280;70385;44.538;18.532;2024-01-15T00:30:03;98549.38;;;-5.11;100.00
80927;BME280;70385;44.538;18.532;2024-01-15T00:32:33;98540.03;;;-5.15;100.00
80927;BME280;70385;44.538;18.532;2024-01-15T00:35:01;98550.22;;;-5.15;100.00
80927;BME280;70385;44.538;18.532;2024-01-15T00:37:28;98542.56;;;-5.20;100.00
80927;BME280;70385;44.538;18.532;2024-01-15T00:39:57;98529.75;;;-5.28;100.00
80927;BME280;70385;44.538;18.532;2024-01-15T00:42:32;98534.84;;;-5.25;100.00
80927;BME280;70385;44.538;18.532;2024-01-15T00:44:58;98535.72;;;-5.24;100.00
80927;BME280;70385;44.538;18.532;2024-01-15T00:47:25;98533.13;;;-5.32;100.00
80927;BME280;70385;44.538;18.532;2024-01-15T00:49:55;98538.22;;;-5.38;100.00
80927;BME280;70385;44.538;18.532;2024-01-15T00:52:22;98547.56;;;-5.38;100.00
80927;BME280;70385;44.538;18.532;2024-01-15T00:54:48;98522.06;;;-5.35;100.00
80927;BME280;70385;44.538;18.532;2024-01-15T00:57:14;98523.81;;;-5.27;100.00
80927;BME280;70385;44.538;18.532;2024-01-15T00:59:40;98511.03;;;-5.36;100.00
80927;BME280;70385;44.538;18.532;2024-01-15T01:02:08;98518.69;;;-5.34;100.00
80927;BME280;70385;44.538;18.532;2024-01-15T01:04:34;98516.03;;;-5.51;100.00
80927;BME280;70385;44.538;18.532;2024-01-15T01:07:00;98527.94;;;-5.53;100.00
80927;BME280;70385;44.538;18.532;2024-01-15T01:09:26;98515.97;;;-5.62;100.00
80927;BME280;70385;44.538;18.532;2024-01-15T01:11:56;98502.34;;;-5.68;100.00
80927;BME280;70385;44.538;18.532;2024-01-15T01:14:23;98510.00;;;-5.62;100.00
80927;BME280;70385;44.538;18.532;2024-01-15T01:16:52;98500.72;;;-5.57;100.00
80927;BME280;70385;44.538;18.532;2024-01-15T01:19:20;98504.06;;;-5.61;100.00
80927;BME280;70385;44.538;18.532;2024-01-15T01:21:47;98510.00;;;-5.64;100.00
80927;BME280;70385;44.538;18.532;2024-01-15T01:24:13;98504.06;;;-5.64;100.00
80927;BME280;70385;44.538;18.532;2024-01-15T01:26:41;98494.78;;;-5.53;100.00
80927;BME280;70385;44.538;18.532;2024-01-15T01:29:11;98495.66;;;-5.51;100.00
80927;BME280;70385;44.538;18.532;2024-01-15T01:31:43;98487.16;;;-5.48;100.00
80927;BME280;70385;44.538;18.532;2024-01-15T01:34:15;98475.25;;;-5.54;100.00
80927;BME280;70385;44.538;18.532;2024-01-15T01:36:45;98475.25;;;-5.51;100.00
80927;BME280;70385;44.538;18.532;2024-01-15T01:39:12;98477.81;;;-5.48;100.00
80927;BME280;70385;44.538;18.532;2024-01-15T01:41:38;98448.94;;;-5.47;100.00
80927;BME280;70385;44.538;18.532;2024-01-15T01:44:06;98455.72;;;-5.46;100.00
80927;BME280;70385;44.538;18.532;2024-01-15T01:46:34;98463.41;;;-5.40;100.00
80927;BME280;70385;44.538;18.532;2024-01-15T01:49:07;98449.84;;;-5.39;100.00
80927;BME280;70385;44.538;18.532;2024-01-15T01:51:35;98454.94;;;-5.39;100.00
80927;BME280;70385;44.538;18.532;2024-01-15T01:54:06;98448.16;;;-5.35;100.00
80927;BME280;70385;44.538;18.532;2024-01-15T01:56:34;98441.34;;;-5.32;100.00
80927;BME280;70385;44.538;18.532;2024-01-15T01:59:01;98431.16;;;-5.23;100.00
80927;BME280;70385;44.538;18.532;2024-01-15T02:01:29;98432.88;;;-5.22;100.00
80927;BME280;70385;44.538;18.532;2024-01-15T02:03:58;98436.31;;;-5.20;100.00
80927;BME280;70385;44.538;18.532;2024-01-15T02:06:24;98410.78;;;-5.23;100.00
80927;BME280;70385;44.538;18.532;2024-01-15T02:08:50;98409.06;;;-5.24;100.00
80927;BME280;70385;44.538;18.532;2024-01-15T02:11:18;98404.00;;;-5.14;100.00
80927;BME280;70385;44.538;18.532;2024-01-15T02:13:49;98400.59;;;-5.20;100.00
80927;BME280;70385;44.538;18.532;2024-01-15T02:16:16;98409.09;;;-5.19;100.00
80927;BME280;70385;44.538;18.532;2024-01-15T02:18:43;98412.50;;;-5.18;100.00
80927;BME280;70385;44.538;18.532;2024-01-15T02:21:11;98404.81;;;-5.22;100.00
80927;BME280;70385;44.538;18.532;2024-01-15T02:23:38;98402.28;;;-5.25;100.00
80927;BME280;70385;44.538;18.532;2024-01-15T02:26:06;98383.56;;;-5.22;100.00
80927;BME280;70385;44.538;18.532;2024-01-15T02:28:32;98368.31;;;-5.21;100.00
80927;BME280;70385;44.538;18.532;2024-01-15T02:30:59;98355.53;;;-5.24;100.00
80927;BME280;70385;44.538;18.532;2024-01-15T02:33:27;98364.88;;;-5.23;100.00
80927;BME280;70385;44.538;18.532;2024-01-15T02:35:53;98364.88;;;-5.26;100.00
80927;BME280;70385;44.538;18.532;2024-01-15T02:38:20;98358.06;;;-5.28;100.00
80927;BME280;70385;44.538;18.532;2024-01-15T02:40:46;98350.44;;;-5.24;100.00
80927;BME280;70385;44.538;18.532;2024-01-15T02:43:13;98348.72;;;-5.23;100.00
80927;BME280;70385;44.538;18.532;2024-01-15T02:45:39;98355.56;;;-5.21;100.00
80927;BME280;70385;44.538;18.532;2024-01-15T02:48:06;98347.03;;;-5.23;100.00
80927;BME280;70385;44.538;18.532;2024-01-15T02:50:32;98354.69;;;-5.23;100.00
80927;BME280;70385;44.538;18.532;2024-01-15T02:52:59;98358.94;;;-5.23;100.00
80927;BME280;70385;44.538;18.532;2024-01-15T02:55:25;98354.66;;;-5.32;100.00
80927;BME280;70385;44.538;18.532;2024-01-15T02:57:51;98358.06;;;-5.33;100.00
80927;BME280;70385;44.538;18.532;2024-01-15T03:00:17;98352.94;;;-5.40;100.00
80927;BME280;70385;44.538;18.532;2024-01-15T03:02:52;98348.69;;;-5.40;100.00
80927;BME280;70385;44.538;18.532;2024-01-15T03:05:18;98339.34;;;-5.42;100.00
80927;BME280;70385;44.538;18.532;2024-01-15T03:07:47;98334.25;;;-5.44;100.00
80927;BME280;70385;44.538;18.532;2024-01-15T03:10:13;98345.31;;;-5.37;100.00
80927;BME280;70385;44.538;18.532;2024-01-15T03:12:39;98334.28;;;-5.38;100.00
80927;BME280;70385;44.538;18.532;2024-01-15T03:15:07;98336.81;;;-5.33;100.00
80927;BME280;70385;44.538;18.532;2024-01-15T03:17:33;98327.47;;;-5.33;100.00
80927;BME280;70385;44.538;18.532;2024-01-15T03:20:00;98333.44;;;-5.26;100.00
80927;BME280;70385;44.538;18.532;2024-01-15T03:22:26;98323.22;;;-5.34;100.00
80927;BME280;70385;44.538;18.532;2024-01-15T03:24:54;98325.78;;;-5.25;100.00
80927;BME280;70385;44.538;18.532;2024-01-15T03:27:20;98320.69;;;-5.28;100.00
80927;BME280;70385;44.538;18.532;2024-01-15T03:29:46;98311.31;;;-5.21;100.00
80927;BME280;70385;44.538;18.532;2024-01-15T03:32:12;98281.59;;;-5.21;100.00
80927;BME280;70385;44.538;18.532;2024-01-15T03:34:38;98280.75;;;-5.15;100.00
80927;BME280;70385;44.538;18.532;2024-01-15T03:37:05;98290.09;;;-5.06;100.00
80927;BME280;70385;44.538;18.532;2024-01-15T03:39:31;98288.41;;;-4.98;100.00
80927;BME280;70385;44.538;18.532;2024-01-15T03:42:01;98290.09;;;-4.93;100.00
80927;BME280;70385;44.538;18.532;2024-01-15T03:44:27;98291.81;;;-4.93;100.00
80927;BME280;70385;44.538;18.532;2024-01-15T03:46:52;98285.00;;;-5.00;100.00
80927;BME280;70385;44.538;18.532;2024-01-15T03:49:19;98267.13;;;-4.94;100.00
80927;BME280;70385;44.538;18.532;2024-01-15T03:51:44;98263.75;;;-4.93;100.00
80927;BME280;70385;44.538;18.532;2024-01-15T03:54:12;98276.50;;;-4.81;100.00
80927;BME280;70385;44.538;18.532;2024-01-15T03:56:38;98278.19;;;-4.80;100.00
80927;BME280;70385;44.538;18.532;2024-01-15T03:59:04;98267.97;;;-4.77;100.00
80927;BME280;70385;44.538;18.532;2024-01-15T04:01:30;98264.56;;;-4.74;100.00
80927;BME280;70385;44.538;18.532;2024-01-15T04:03:57;98259.44;;;-4.70;100.00
80927;BME280;70385;44.538;18.532;2024-01-15T04:06:23;98242.44;;;-4.71;100.00
80927;BME280;70385;44.538;18.532;2024-01-15T04:08:49;98231.38;;;-4.68;100.00
80927;BME280;70385;44.538;18.532;2024-01-15T04:11:15;98240.72;;;-4.61;100.00
80927;BME280;70385;44.538;18.532;2024-01-15T04:13:42;98242.44;;;-4.62;100.00
80927;BME280;70385;44.538;18.532;2024-01-15T04:16:08;98237.31;;;-4.59;100.00
80927;BME280;70385;44.538;18.532;2024-01-15T04:18:34;98232.22;;;-4.59;100.00
80927;BME280;70385;44.538;18.532;2024-01-15T04:21:00;98232.22;;;-4.71;100.00
80927;BME280;70385;44.538;18.532;2024-01-15T04:23:28;98233.94;;;-4.73;100.00
80927;BME280;70385;44.538;18.532;2024-01-15T04:25:54;98210.09;;;-4.69;100.00
80927;BME280;70385;44.538;18.532;2024-01-15T04:28:20;98213.50;;;-4.67;100.00
80927;BME280;70385;44.538;18.532;2024-01-15T04:30:46;98211.81;;;-4.62;100.00
80927;BME280;70385;44.538;18.532;2024-01-15T04:33:12;98210.09;;;-4.67;100.00
80927;BME280;70385;44.538;18.532;2024-01-15T04:35:39;98209.25;;;-4.65;100.00
80927;BME280;70385;44.538;18.532;2024-01-15T04:38:05;98212.66;;;-4.61;100.00
80927;BME280;70385;44.538;18.532;2024-01-15T04:40:34;98210.09;;;-4.67;100.00
80927;BME280;70385;44.538;18.532;2024-01-15T04:43:01;98197.34;;;-4.70;100.00
80927;BME280;70385;44.538;18.532;2024-01-15T04:45:27;98199.88;;;-4.58;100.00
80927;BME280;70385;44.538;18.532;2024-01-15T04:47:54;98212.63;;;-4.53;100.00
80927;BME280;70385;44.538;18.532;2024-01-15T04:50:28;98212.63;;;-4.53;100.00
80927;BME280;70385;44.538;18.532;2024-01-15T04:52:54;98210.06;;;-4.50;100.00
80927;BME280;70385;44.538;18.532;2024-01-15T04:55:20;98202.41;;;-4.50;100.00
80927;BME280;70385;44.538;18.532;2024-01-15T04:57:47;98192.19;;;-4.50;100.00
80927;BME280;70385;44.538;18.532;2024-01-15T05:00:15;98198.13;;;-4.39;100.00
80927;BME280;70385;44.538;18.532;2024-01-15T05:02:45;98193.00;;;-4.36;100.00
80927;BME280;70385;44.538;18.532;2024-01-15T05:05:11;98182.78;;;-4.38;100.00
80927;BME280;70385;44.538;18.532;2024-01-15T05:07:41;98178.47;;;-4.28;100.00
80927;BME280;70385;44.538;18.532;2024-01-15T05:10:07;98175.91;;;-4.25;100.00
80927;BME280;70385;44.538;18.532;2024-01-15T05:12:33;98175.03;;;-4.18;100.00
80927;BME280;70385;44.538;18.532;2024-01-15T05:14:59;98168.19;;;-4.13;100.00
80927;BME280;70385;44.538;18.532;2024-01-15T05:17:27;98164.72;;;-4.07;100.00
80927;BME280;70385;44.538;18.532;2024-01-15T05:19:57;98179.19;;;-4.02;100.00
80927;BME280;70385;44.538;18.532;2024-01-15T05:22:24;98157.06;;;-4.03;100.00
80927;BME280;70385;44.538;18.532;2024-01-15T05:24:51;98158.69;;;-3.91;100.00
80927;BME280;70385;44.538;18.532;2024-01-15T05:27:18;98155.25;;;-3.88;100.00
80927;BME280;70385;44.538;18.532;2024-01-15T05:29:45;98148.44;;;-3.83;100.00
80927;BME280;70385;44.538;18.532;2024-01-15T05:32:11;98140.72;;;-3.80;100.00
80927;BME280;70385;44.538;18.532;2024-01-15T05:34:37;98154.25;;;-3.69;100.00
80927;BME280;70385;44.538;18.532;2024-01-15T05:37:14;98152.56;;;-3.65;100.00
80927;BME280;70385;44.538;18.532;2024-01-15T05:39:42;98149.13;;;-3.63;100.00
80927;BME280;70385;44.538;18.532;2024-01-15T05:42:08;98148.25;;;-3.62;100.00
80927;BME280;70385;44.538;18.532;2024-01-15T05:44:35;98149.09;;;-3.60;100.00
80927;BME280;70385;44.538;18.532;2024-01-15T05:47:01;98151.72;;;-3.66;100.00
80927;BME280;70385;44.538;18.532;2024-01-15T05:49:29;98165.25;;;-3.56;100.00
80927;BME280;70385;44.538;18.532;2024-01-15T05:51:56;98152.47;;;-3.56;100.00
80927;BME280;70385;44.538;18.532;2024-01-15T05:54:22;98165.19;;;-3.49;100.00
80927;BME280;70385;44.538;18.532;2024-01-15T05:56:51;98154.94;;;-3.44;100.00
80927;BME280;70385;44.538;18.532;2024-01-15T05:59:20;98148.97;;;-3.48;100.00
80927;BME280;70385;44.538;18.532;2024-01-15T06:01:46;98145.56;;;-3.44;100.00
80927;BME280;70385;44.538;18.532;2024-01-15T06:04:12;98130.19;;;-3.42;100.00
80927;BME280;70385;44.538;18.532;2024-01-15T06:06:39;98117.38;;;-3.39;100.00
80927;BME280;70385;44.538;18.532;2024-01-15T06:09:06;98113.91;;;-3.33;100.00
80927;BME280;70385;44.538;18.532;2024-01-15T06:11:33;98111.31;;;-3.27;100.00
80927;BME280;70385;44.538;18.532;2024-01-15T06:13:59;98109.56;;;-3.24;100.00
80927;BME280;70385;44.538;18.532;2024-01-15T06:16:29;98110.34;;;-3.17;100.00
80927;BME280;70385;44.538;18.532;2024-01-15T06:18:58;98113.72;;;-3.14;100.00
80927;BME280;70385;44.538;18.532;2024-01-15T06:21:27;98107.72;;;-3.13;100.00
80927;BME280;70385;44.538;18.532;2024-01-15T06:23:54;98106.84;;;-3.07;100.00
80927;BME280;70385;44.538;18.532;2024-01-15T06:26:25;98090.72;;;-3.17;100.00
80927;BME280;70385;44.538;18.532;2024-01-15T06:28:52;98097.47;;;-3.08;100.00
80927;BME280;70385;44.538;18.532;2024-01-15T06:31:18;98077.91;;;-3.15;100.00
80927;BME280;70385;44.538;18.532;2024-01-15T06:33:44;98089.78;;;-3.10;100.00
80927;BME280;70385;44.538;18.532;2024-01-15T06:36:14;98092.41;;;-3.16;100.00
80927;BME280;70385;44.538;18.532;2024-01-15T06:38:43;98105.19;;;-3.14;100.00
80927;BME280;70385;44.538;18.532;2024-01-15T06:41:10;98100.88;;;-3.08;100.00
80927;BME280;70385;44.538;18.532;2024-01-15T06:43:36;98094.91;;;-3.10;100.00
80927;BME280;70385;44.538;18.532;2024-01-15T06:46:04;98093.22;;;-3.12;100.00
80927;BME280;70385;44.538;18.532;2024-01-15T06:48:33;98102.53;;;-3.03;100.00
80927;BME280;70385;44.538;18.532;2024-01-15T06:50:59;98098.25;;;-3.01;100.00
80927;BME280;70385;44.538;18.532;2024-01-15T06:53:28;98099.84;;;-2.93;100.00
80927;BME280;70385;44.538;18.532;2024-01-15T06:55:55;98104.06;;;-2.87;100.00
80927;BME280;70385;44.538;18.532;2024-01-15T06:58:23;98107.31;;;-2.75;100.00
80927;BME280;70385;44.538;18.532;2024-01-15T07:00:50;98099.53;;;-2.65;100.00
80927;BME280;70385;44.538;18.532;2024-01-15T07:03:18;98096.97;;;-2.64;100.00
80927;BME280;70385;44.538;18.532;2024-01-15T07:05:45;98090.16;;;-2.66;100.00
80927;BME280;70385;44.538;18.532;2024-01-15T07:08:12;98098.53;;;-2.54;100.00
80927;BME280;70385;44.538;18.532;2024-01-15T07:10:41;98088.25;;;-2.49;100.00
80927;BME280;70385;44.538;18.532;2024-01-15T07:13:09;98083.88;;;-2.42;100.00
80927;BME280;70385;44.538;18.532;2024-01-15T07:15:35;98082.16;;;-2.42;100.00
80927;BME280;70385;44.538;18.532;2024-01-15T07:18:02;98093.16;;;-2.35;100.00
80927;BME280;70385;44.538;18.532;2024-01-15T07:20:31;98086.16;;;-2.23;100.00
80927;BME280;70385;44.538;18.532;2024-01-15T07:23:02;98089.69;;;-2.30;100.00
80927;BME280;70385;44.538;18.532;2024-01-15T07:25:33;98085.13;;;-2.13;100.00
80927;BME280;70385;44.538;18.532;2024-01-15T07:28:03;98076.56;;;-2.08;100.00
80927;BME280;70385;44.538;18.532;2024-01-15T07:30:32;98071.47;;;-2.10;100.00
80927;BME280;70385;44.538;18.532;2024-01-15T07:33:06;98054.44;;;-2.16;100.00
80927;BME280;70385;44.538;18.532;2024-01-15T07:35:42;98065.22;;;-1.94;100.00
80927;BME280;70385;44.538;18.532;2024-01-15T07:38:10;98055.00;;;-1.97;100.00
80927;BME280;70385;44.538;18.532;2024-01-15T07:40:45;98060.69;;;-1.78;100.00
80927;BME280;70385;44.538;18.532;2024-01-15T07:43:21;98053.81;;;-1.76;100.00
80927;BME280;70385;44.538;18.532;2024-01-15T07:45:51;98051.03;;;-1.62;100.00
80927;BME280;70385;44.538;18.532;2024-01-15T07:48:20;98043.41;;;-1.67;100.00
80927;BME280;70385;44.538;18.532;2024-01-15T07:50:58;98045.97;;;-1.67;100.00
80927;BME280;70385;44.538;18.532;2024-01-15T07:53:28;98057.69;;;-1.50;100.00
80927;BME280;70385;44.538;18.532;2024-01-15T07:56:02;98060.88;;;-1.39;100.00
80927;BME280;70385;44.538;18.532;2024-01-15T07:58:38;98052.25;;;-1.35;100.00
80927;BME280;70385;44.538;18.532;2024-01-15T08:01:17;98058.44;;;-1.45;100.00
80927;BME280;70385;44.538;18.532;2024-01-15T08:03:43;98060.31;;;-1.54;100.00
80927;BME280;70385;44.538;18.532;2024-01-15T08:06:11;98073.13;;;-1.54;100.00
80927;BME280;70385;44.538;18.532;2024-01-15T08:08:46;98073.94;;;-1.51;100.00
80927;BME280;70385;44.538;18.532;2024-01-15T08:11:32;98070.41;;;-1.46;100.00
80927;BME280;70385;44.538;18.532;2024-01-15T08:14:08;98075.34;;;-1.35;100.00
80927;BME280;70385;44.538;18.532;2024-01-15T08:16:36;98091.41;;;-1.24;100.00
80927;BME280;70385;44.538;18.532;2024-01-15T08:19:03;98072.81;;;-1.37;100.00
80927;BME280;70385;44.538;18.532;2024-01-15T08:21:35;98076.63;;;-1.11;100.00
80927;BME280;70385;44.538;18.532;2024-01-15T08:24:12;98085.94;;;-1.06;100.00
80927;BME280;70385;44.538;18.532;2024-01-15T08:26:39;98099.34;;;-0.90;100.00
80927;BME280;70385;44.538;18.532;2024-01-15T08:29:05;98105.84;;;-0.72;100.00
80927;BME280;70385;44.538;18.532;2024-01-15T08:31:37;98105.97;;;-0.80;100.00
80927;BME280;70385;44.538;18.532;2024-01-15T08:34:04;98097.75;;;-0.54;100.00
80927;BME280;70385;44.538;18.532;2024-01-15T08:36:39;98105.91;;;-0.34;100.00
80927;BME280;70385;44.538;18.532;2024-01-15T08:39:06;98123.56;;;-0.60;100.00
80927;BME280;70385;44.538;18.532;2024-01-15T08:41:32;98129.78;;;-0.28;100.00
80927;BME280;70385;44.538;18.532;2024-01-15T08:43:58;98129.56;;;-0.19;100.00
80927;BME280;70385;44.538;18.532;2024-01-15T08:46:24;98122.47;;;-0.08;100.00
80927;BME280;70385;44.538;18.532;2024-01-15T08:48:50;98120.22;;;0.15;100.00
80927;BME280;70385;44.538;18.532;2024-01-15T08:51:17;98121.66;;;0.28;100.00
80927;BME280;70385;44.538;18.532;2024-01-15T08:53:44;98102.97;;;0.56;100.00
80927;BME280;70385;44.538;18.532;2024-01-15T08:56:10;98103.38;;;0.73;100.00
80927;BME280;70385;44.538;18.532;2024-01-15T08:58:36;98090.91;;;0.90;100.00
80927;BME280;70385;44.538;18.532;2024-01-15T09:01:03;98096.47;;;1.08;100.00
80927;BME280;70385;44.538;18.532;2024-01-15T09:03:29;98094.59;;;1.13;100.00
80927;BME280;70385;44.538;18.532;2024-01-15T09:06:00;98105.31;;;1.30;100.00
80927;BME280;70385;44.538;18.532;2024-01-15T09:08:26;98096.03;;;1.25;100.00
80927;BME280;70385;44.538;18.532;2024-01-15T09:10:53;98120.19;;;1.20;100.00
80927;BME280;70385;44.538;18.532;2024-01-15T09:13:19;98112.63;;;1.13;100.00
80927;BME280;70385;44.538;18.532;2024-01-15T09:15:46;98111.53;;;1.23;100.00
80927;BME280;70385;44.538;18.532;2024-01-15T09:18:15;98102.34;;;1.44;100.00
80927;BME280;70385;44.538;18.532;2024-01-15T09:20:46;98101.13;;;1.57;100.00
80927;BME280;70385;44.538;18.532;2024-01-15T09:23:12;98085.47;;;1.63;100.00
80927;BME280;70385;44.538;18.532;2024-01-15T09:25:38;98066.53;;;1.64;100.00
80927;BME280;70385;44.538;18.532;2024-01-15T09:28:05;98053.16;;;1.51;100.00
80927;BME280;70385;44.538;18.532;2024-01-15T09:30:37;98032.53;;;1.51;100.00
80927;BME280;70385;44.538;18.532;2024-01-15T09:33:06;98065.97;;;1.55;100.00
80927;BME280;70385;44.538;18.532;2024-01-15T09:35:34;98087.97;;;1.37;100.00
80927;BME280;70385;44.538;18.532;2024-01-15T09:37:59;98077.94;;;1.26;100.00
80927;BME280;70385;44.538;18.532;2024-01-15T09:40:31;98083.72;;;1.34;100.00
80927;BME280;70385;44.538;18.532;2024-01-15T09:43:04;98072.34;;;1.41;100.00
80927;BME280;70385;44.538;18.532;2024-01-15T09:45:32;98066.28;;;1.13;100.00
80927;BME280;70385;44.538;18.532;2024-01-15T09:47:58;98055.91;;;1.45;100.00
80927;BME280;70385;44.538;18.532;2024-01-15T09:50:24;98065.88;;;1.58;100.00
80927;BME280;70385;44.538;18.532;2024-01-15T09:52:52;98073.50;;;1.31;100.00
80927;BME280;70385;44.538;18.532;2024-01-15T09:55:19;98062.22;;;1.35;100.00
80927;BME280;70385;44.538;18.532;2024-01-15T09:57:45;98061.97;;;1.44;100.00
80927;BME280;70385;44.538;18.532;2024-01-15T10:00:17;98061.69;;;1.53;100.00
80927;BME280;70385;44.538;18.532;2024-01-15T10:02:44;98078.41;;;1.40;100.00
80927;BME280;70385;44.538;18.532;2024-01-15T10:05:11;98076.16;;;1.28;100.00
80927;BME280;70385;44.538;18.532;2024-01-15T10:07:39;98083.09;;;1.26;100.00
80927;BME280;70385;44.538;18.532;2024-01-15T10:10:08;98079.34;;;1.07;100.00
80927;BME280;70385;44.538;18.532;2024-01-15T10:12:36;98057.78;;;1.09;100.00
80927;BME280;70385;44.538;18.532;2024-01-15T10:15:03;98049.88;;;1.17;100.00
80927;BME280;70385;44.538;18.532;2024-01-15T10:17:30;98029.91;;;1.24;100.00
80927;BME280;70385;44.538;18.532;2024-01-15T10:19:57;98005.25;;;1.15;100.00
80927;BME280;70385;44.538;18.532;2024-01-15T10:22:23;97981.63;;;1.30;100.00
80927;BME280;70385;44.538;18.532;2024-01-15T10:24:49;97991.44;;;1.47;100.00
80927;BME280;70385;44.538;18.532;2024-01-15T10:27:16;97999.44;;;1.38;100.00
80927;BME280;70385;44.538;18.532;2024-01-15T10:29:42;97995.75;;;1.46;100.00
80927;BME280;70385;44.538;18.532;2024-01-15T10:32:11;97989.50;;;1.53;100.00
80927;BME280;70385;44.538;18.532;2024-01-15T10:34:39;97998.41;;;1.71;100.00
80927;BME280;70385;44.538;18.532;2024-01-15T10:37:07;97997.66;;;1.68;100.00
80927;BME280;70385;44.538;18.532;2024-01-15T10:39:33;97998.13;;;1.80;100.00
80927;BME280;70385;44.538;18.532;2024-01-15T10:42:06;97994.88;;;1.75;100.00
80927;BME280;70385;44.538;18.532;2024-01-15T10:44:32;97991.03;;;1.87;100.00
80927;BME280;70385;44.538;18.532;2024-01-15T10:46:58;97996.72;;;1.70;100.00
80927;BME280;70385;44.538;18.532;2024-01-15T10:49:24;97971.78;;;1.71;100.00
80927;BME280;70385;44.538;18.532;2024-01-15T10:51:53;97975.50;;;1.62;100.00
80927;BME280;70385;44.538;18.532;2024-01-15T10:54:19;97971.25;;;1.61;100.00
80927;BME280;70385;44.538;18.532;2024-01-15T10:56:46;97968.28;;;1.45;100.00
80927;BME280;70385;44.538;18.532;2024-01-15T10:59:14;97976.38;;;1.33;100.00
80927;BME280;70385;44.538;18.532;2024-01-15T11:01:44;97970.31;;;1.36;100.00
80927;BME280;70385;44.538;18.532;2024-01-15T11:04:12;97961.91;;;1.29;100.00
80927;BME280;70385;44.538;18.532;2024-01-15T11:06:47;97957.88;;;1.20;100.00
80927;BME280;70385;44.538;18.532;2024-01-15T11:09:15;97963.41;;;1.36;100.00
80927;BME280;70385;44.538;18.532;2024-01-15T11:11:46;97962.75;;;1.30;100.00
80927;BME280;70385;44.538;18.532;2024-01-15T11:14:35;97969.41;;;1.37;100.00
80927;BME280;70385;44.538;18.532;2024-01-15T11:17:01;97953.91;;;1.38;100.00
80927;BME280;70385;44.538;18.532;2024-01-15T11:19:38;97953.13;;;1.35;100.00
80927;BME280;70385;44.538;18.532;2024-01-15T11:25:14;97949.69;;;1.36;100.00
80927;BME280;70385;44.538;18.532;2024-01-15T11:27:49;97946.72;;;1.20;100.00
80927;BME280;70385;44.538;18.532;2024-01-15T11:30:24;97937.31;;;1.19;100.00
80927;BME280;70385;44.538;18.532;2024-01-15T11:32:52;97940.59;;;1.24;100.00
80927;BME280;70385;44.538;18.532;2024-01-15T11:35:19;97947.31;;;1.28;100.00
80927;BME280;70385;44.538;18.532;2024-01-15T11:40:19;97943.28;;;1.47;100.00
80927;BME280;70385;44.538;18.532;2024-01-15T11:42:46;97938.75;;;1.56;100.00
80927;BME280;70385;44.538;18.532;2024-01-15T11:45:18;97931.09;;;1.52;100.00
80927;BME280;70385;44.538;18.532;2024-01-15T11:50:46;97922.94;;;1.93;100.00
80927;BME280;70385;44.538;18.532;2024-01-15T11:53:27;97920.06;;;2.02;100.00
80927;BME280;70385;44.538;18.532;2024-01-15T11:55:59;97912.53;;;1.96;100.00
80927;BME280;70385;44.538;18.532;2024-01-15T11:58:28;97915.25;;;1.91;100.00
80927;BME280;70385;44.538;18.532;2024-01-15T12:00:55;97904.78;;;1.96;100.00
80927;BME280;70385;44.538;18.532;2024-01-15T12:03:22;97905.41;;;2.02;100.00
80927;BME280;70385;44.538;18.532;2024-01-15T12:05:53;97898.63;;;2.00;100.00
80927;BME280;70385;44.538;18.532;2024-01-15T12:08:24;97894.69;;;2.15;100.00
80927;BME280;70385;44.538;18.532;2024-01-15T12:10:51;97895.44;;;2.18;100.00
80927;BME280;70385;44.538;18.532;2024-01-15T12:13:17;97888.16;;;2.04;100.00
80927;BME280;70385;44.538;18.532;2024-01-15T12:15:45;97884.38;;;2.15;100.00
80927;BME280;70385;44.538;18.532;2024-01-15T12:18:16;97881.22;;;2.30;100.00
80927;BME280;70385;44.538;18.532;2024-01-15T12:20:44;97883.69;;;2.34;100.00
80927;BME280;70385;44.538;18.532;2024-01-15T12:23:12;97863.47;;;2.46;100.00
80927;BME280;70385;44.538;18.532;2024-01-15T12:25:39;97863.31;;;2.73;100.00
80927;BME280;70385;44.538;18.532;2024-01-15T12:28:06;97852.88;;;2.77;100.00
80927;BME280;70385;44.538;18.532;2024-01-15T12:30:34;97838.88;;;3.04;100.00
80927;BME280;70385;44.538;18.532;2024-01-15T12:33:06;97827.91;;;3.21;100.00
80927;BME280;70385;44.538;18.532;2024-01-15T12:35:36;97827.28;;;3.36;100.00
80927;BME280;70385;44.538;18.532;2024-01-15T12:38:02;97828.81;;;3.62;100.00
80927;BME280;70385;44.538;18.532;2024-01-15T12:40:29;97819.13;;;3.67;100.00
80927;BME280;70385;44.538;18.532;2024-01-15T12:42:57;97830.81;;;3.55;100.00
80927;BME280;70385;44.538;18.532;2024-01-15T12:45:25;97831.00;;;3.51;100.00
80927;BME280;70385;44.538;18.532;2024-01-15T12:47:53;97828.59;;;3.24;100.00
80927;BME280;70385;44.538;18.532;2024-01-15T12:50:19;97826.66;;;3.09;100.00
80927;BME280;70385;44.538;18.532;2024-01-15T12:52:45;97816.72;;;2.98;100.00
80927;BME280;70385;44.538;18.532;2024-01-15T12:55:11;97811.13;;;2.87;100.00